Time,TemperatureF,DewpointF,PressureIn,WindDirection,WindDirectionDegrees,WindSpeedMPH,WindSpeedGustMPH,Humidity,HourlyPrecipIn,Conditions,Clouds,dailyrainin,SoftwareType,DateUTC
2013-09-24 00:14:00,49.0,44.0,30.10,North,1,114.0,114.0,82,0.00,,,1.94,,2013-09-24 04:14:00,
2013-09-24 00:24:00,49.0,44.0,30.09,North,1,114.0,114.0,82,0.00,,,1.94,,2013-09-24 04:24:00,
2013-09-24 00:54:00,49.0,44.0,30.09,North,1,114.0,114.0,83,0.00,,,1.94,,2013-09-24 04:54:00,
2013-09-24 01:23:00,48.0,43.0,30.09,North,1,114.0,114.0,84,0.00,,,1.94,,2013-09-24 05:23:00,
2013-09-24 01:53:00,48.0,43.0,30.09,North,1,114.0,114.0,84,0.00,,,1.94,,2013-09-24 05:53:00,
2013-09-24 02:13:00,47.0,43.0,30.08,North,1,114.0,114.0,85,0.00,,,1.94,,2013-09-24 06:13:00,
2013-09-24 02:22:00,47.0,43.0,30.08,North,1,114.0,114.0,85,0.00,,,1.94,,2013-09-24 06:22:00,
2013-09-24 02:52:00,47.0,43.0,30.09,North,1,114.0,114.0,86,0.00,,,1.94,,2013-09-24 06:52:00,
2013-09-24 03:22:00,46.0,42.0,30.09,North,1,114.0,114.0,87,0.00,,,1.94,,2013-09-24 07:22:00,
2013-09-24 03:52:00,46.0,42.0,30.08,North,1,114.0,114.0,87,0.00,,,1.94,,2013-09-24 07:52:00,
2013-09-24 04:11:00,45.0,42.0,30.08,North,1,114.0,114.0,88,0.00,,,1.94,,2013-09-24 08:11:00,
2013-09-24 04:23:00,45.0,42.0,30.08,North,1,114.0,114.0,88,0.00,,,1.94,,2013-09-24 08:23:00,
2013-09-24 04:52:00,45.0,42.0,30.08,North,1,114.0,114.0,89,0.00,,,1.94,,2013-09-24 08:52:00,
2013-09-24 05:21:00,44.0,41.0,30.08,North,1,114.0,114.0,89,0.00,,,1.94,,2013-09-24 09:21:00,
2013-09-24 05:54:00,44.0,41.0,30.09,North,1,114.0,114.0,90,0.04,,,1.98,,2013-09-24 09:54:00,
2013-09-24 06:23:00,44.0,41.0,30.09,North,1,114.0,114.0,90,0.04,,,1.98,,2013-09-24 10:23:00,
2013-09-24 06:33:00,44.0,41.0,30.09,North,1,114.0,114.0,90,0.04,,,1.98,,2013-09-24 10:33:00,
2013-09-24 06:53:00,44.0,41.0,30.09,North,1,114.0,114.0,90,0.00,,,1.98,,2013-09-24 10:53:00,
2013-09-24 07:03:00,44.0,41.0,30.09,North,1,114.0,114.0,90,0.00,,,1.98,,2013-09-24 11:03:00,
2013-09-24 07:11:00,44.0,41.0,30.09,North,1,114.0,114.0,90,0.00,,,1.98,,2013-09-24 11:11:00,
2013-09-24 07:22:00,44.0,41.0,30.09,North,1,114.0,114.0,90,0.00,,,1.98,,2013-09-24 11:22:00,
2013-09-24 07:52:00,44.0,41.0,30.10,North,1,114.0,114.0,90,0.00,,,0.18,,2013-09-24 11:52:00,
2013-09-24 08:12:00,44.0,42.0,30.10,North,1,114.0,114.0,91,0.00,,,0.18,,2013-09-24 12:12:00,
2013-09-24 08:22:00,44.0,42.0,30.10,North,1,114.0,114.0,91,0.00,,,0.18,,2013-09-24 12:22:00,
2013-09-24 08:52:00,44.0,42.0,30.10,North,1,114.0,114.0,91,0.00,,,0.18,,2013-09-24 12:52:00,
2013-09-24 09:22:00,46.0,43.0,30.11,North,1,114.0,114.0,90,0.00,,,0.18,,2013-09-24 13:22:00,
2013-09-24 09:32:00,46.0,43.0,30.11,North,1,114.0,114.0,90,0.00,,,0.18,,2013-09-24 13:32:00,
2013-09-24 09:52:00,46.0,43.0,30.11,North,1,114.0,114.0,90,0.00,,,0.18,,2013-09-24 13:52:00,
2013-09-24 10:12:00,50.0,46.0,30.11,North,1,114.0,114.0,87,0.00,,,0.18,,2013-09-24 14:12:00,
2013-09-24 10:21:00,50.0,46.0,30.11,North,1,114.0,114.0,87,0.00,,,0.18,,2013-09-24 14:21:00,
2013-09-24 10:52:00,53.0,47.0,30.10,North,1,114.0,114.0,81,0.00,,,0.18,,2013-09-24 14:52:00,
2013-09-24 11:22:00,54.0,46.0,30.09,North,1,114.0,114.0,74,0.00,,,0.18,,2013-09-24 15:22:00,
2013-09-24 11:53:00,55.0,47.0,30.09,North,1,114.0,114.0,74,0.00,,,0.18,,2013-09-24 15:53:00,
2013-09-24 12:23:00,59.0,48.0,30.08,North,1,114.0,114.0,67,0.00,,,0.18,,2013-09-24 16:23:00,
2013-09-24 12:53:00,61.0,49.0,30.06,North,1,114.0,114.0,65,0.00,,,0.18,,2013-09-24 16:53:00,
2013-09-24 13:23:00,62.0,49.0,30.06,North,1,114.0,114.0,63,0.00,,,0.18,,2013-09-24 17:23:00,
2013-09-24 13:54:00,64.0,51.0,30.03,North,1,114.0,114.0,62,0.00,,,0.18,,2013-09-24 17:54:00,
2013-09-24 14:03:00,64.0,51.0,30.03,North,1,114.0,114.0,62,0.00,,,0.18,,2013-09-24 18:03:00,
2013-09-24 14:12:00,64.0,51.0,30.03,North,1,114.0,114.0,62,0.00,,,0.18,,2013-09-24 18:12:00,
2013-09-24 14:22:00,64.0,51.0,30.03,North,1,114.0,114.0,62,0.00,,,0.18,,2013-09-24 18:22:00,
2013-09-24 14:53:00,65.0,49.0,30.01,North,1,114.0,114.0,56,0.00,,,0.18,,2013-09-24 18:53:00,
2013-09-24 15:22:00,68.0,50.0,30.00,North,1,114.0,114.0,53,0.00,,,0.18,,2013-09-24 19:22:00,
2013-09-24 15:52:00,69.0,51.0,29.98,North,1,114.0,114.0,53,0.00,,,0.18,,2013-09-24 19:52:00,
2013-09-24 16:02:00,69.0,51.0,29.98,North,1,114.0,114.0,53,0.00,,,0.18,,2013-09-24 20:02:00,
2013-09-24 16:22:00,69.0,51.0,29.98,North,1,114.0,114.0,52,0.00,,,0.18,,2013-09-24 20:22:00,
2013-09-24 16:32:00,69.0,51.0,29.98,North,1,114.0,114.0,52,0.00,,,0.18,,2013-09-24 20:32:00,
2013-09-24 16:50:00,69.0,50.0,29.96,North,1,114.0,114.0,51,0.00,,,0.18,,2013-09-24 20:50:00,
2013-09-24 16:52:00,69.0,50.0,29.97,North,1,114.0,114.0,51,0.00,,,0.18,,2013-09-24 20:52:00,
2013-09-24 17:12:00,69.0,50.0,29.96,North,1,114.0,114.0,51,0.00,,,0.18,,2013-09-24 21:12:00,
2013-09-24 17:22:00,69.0,50.0,29.96,North,1,114.0,114.0,51,0.00,,,0.18,,2013-09-24 21:22:00,
2013-09-24 17:33:00,69.0,50.0,29.96,North,1,114.0,114.0,51,0.00,,,0.18,,2013-09-24 21:33:00,
2013-09-24 18:24:00,66.0,49.0,29.95,North,1,114.0,114.0,54,0.00,,,0.18,,2013-09-24 22:24:00,
2013-09-24 18:54:00,65.0,49.0,29.95,North,1,114.0,114.0,56,0.00,,,0.18,,2013-09-24 22:54:00,
2013-09-24 19:13:00,65.0,49.0,29.95,North,1,114.0,114.0,57,0.00,,,0.18,,2013-09-24 23:13:00,
2013-09-24 19:22:00,65.0,49.0,29.95,North,1,114.0,114.0,57,0.00,,,0.18,,2013-09-24 23:22:00,
2013-09-24 19:53:00,61.0,48.0,29.96,North,1,114.0,114.0,62,0.00,,,0.18,,2013-09-24 23:53:00,
2013-09-24 20:02:00,61.0,48.0,29.96,North,1,114.0,114.0,62,0.00,,,0.18,,2013-09-25 00:02:00,
2013-09-24 20:22:00,59.0,47.0,29.95,North,1,114.0,114.0,65,0.00,,,0.18,,2013-09-25 00:22:00,
2013-09-24 20:52:00,58.0,48.0,29.95,North,1,114.0,114.0,70,0.00,,,0.12,,2013-09-25 00:52:00,
2013-09-24 21:21:00,56.0,48.0,29.96,North,1,114.0,114.0,74,0.00,,,0.04,,2013-09-25 01:21:00,
2013-09-24 21:52:00,56.0,49.0,29.96,North,1,114.0,114.0,76,0.00,,,0.04,,2013-09-25 01:52:00,
2013-09-24 22:02:00,56.0,49.0,29.96,North,1,114.0,114.0,76,0.00,,,0.04,,2013-09-25 02:02:00,
2013-09-24 22:22:00,56.0,48.0,29.96,North,1,114.0,114.0,75,0.00,,,0.04,,2013-09-25 02:22:00,
2013-09-24 22:32:00,56.0,48.0,29.96,North,1,114.0,114.0,75,0.00,,,0.04,,2013-09-25 02:32:00,
2013-09-24 22:52:00,55.0,48.0,29.96,North,1,114.0,114.0,77,0.00,,,0.04,,2013-09-25 02:52:00,
2013-09-24 23:23:00,55.0,48.0,29.96,North,1,114.0,114.0,76,0.00,,,0.04,,2013-09-25 03:23:00,
2013-09-24 23:54:00,54.0,48.0,29.96,North,1,114.0,114.0,81,0.00,,,0.04,,2013-09-25 03:54:00,